sensor_id;sensor_type;location;lat;lon;timestamp;pressure;altitude;pressure_sealevel;temperature;humidity
78354;BME280;67629;46.040;18.232;2024-03-07T00:01:52;99535.06;;;7.68;69.78
78354;BME280;67629;46.040;18.232;2024-03-07T00:02:23;99532.19;;;7.63;70.77
78354;BME280;67629;46.040;18.232;2024-03-07T00:02:54;99523.66;;;7.60;70.50
78354;BME280;67629;46.040;18.232;2024-03-07T00:03:24;99535.72;;;7.64;70.76
78354;BME280;67629;46.040;18.232;2024-03-07T00:03:55;99525.28;;;7.61;70.36
78354;BME280;67629;46.040;18.232;2024-03-07T00:04:26;99530.97;;;7.59;70.84
78354;BME280;67629;46.040;18.232;2024-03-07T00:04:56;99532.25;;;7.57;70.72
78354;BME280;67629;46.040;18.232;2024-03-07T00:05:27;99530.53;;;7.62;71.06
78354;BME280;67629;46.040;18.232;2024-03-07T00:05:58;99538.59;;;7.69;70.38
78354;BME280;67629;46.040;18.232;2024-03-07T00:06:28;99531.50;;;7.68;69.43
78354;BME280;67629;46.040;18.232;2024-03-07T00:06:59;99529.69;;;7.62;70.57
78354;BME280;67629;46.040;18.232;2024-03-07T00:07:30;99527.66;;;7.57;70.27
78354;BME280;67629;46.040;18.232;2024-03-07T00:08:01;99526.81;;;7.57;70.41
78354;BME280;67629;46.040;18.232;2024-03-07T00:08:31;99525.75;;;7.58;70.93
78354;BME280;67629;46.040;18.232;2024-03-07T00:09:02;99527.41;;;7.59;70.55
78354;BME280;67629;46.040;18.232;2024-03-07T00:09:34;99525.75;;;7.58;71.48
78354;BME280;67629;46.040;18.232;2024-03-07T00:10:05;99526.38;;;7.60;70.74
78354;BME280;67629;46.040;18.232;2024-03-07T00:10:37;99542.38;;;7.68;70.92
78354;BME280;67629;46.040;18.232;2024-03-07T00:11:08;99528.25;;;7.59;70.49
78354;BME280;67629;46.040;18.232;2024-03-07T00:11:39;99527.03;;;7.55;70.33
78354;BME280;67629;46.040;18.232;2024-03-07T00:12:11;99537.09;;;7.55;70.69
78354;BME280;67629;46.040;18.232;2024-03-07T00:12:45;99533.75;;;7.53;70.67
78354;BME280;67629;46.040;18.232;2024-03-07T00:13:18;99537.75;;;7.50;70.76
78354;BME280;67629;46.040;18.232;2024-03-07T00:13:49;99540.47;;;7.50;70.76
78354;BME280;67629;46.040;18.232;2024-03-07T00:14:20;99542.53;;;7.55;70.81
78354;BME280;67629;46.040;18.232;2024-03-07T00:15:08;99545.25;;;7.55;70.74
78354;BME280;67629;46.040;18.232;2024-03-07T00:15:54;99541.31;;;7.51;71.20
78354;BME280;67629;46.040;18.232;2024-03-07T00:16:24;99531.72;;;7.48;71.04
78354;BME280;67629;46.040;18.232;2024-03-07T00:17:10;99540.88;;;7.54;70.53
78354;BME280;67629;46.040;18.232;2024-03-07T00:17:56;99544.41;;;7.54;71.09
78354;BME280;67629;46.040;18.232;2024-03-07T00:18:27;99545.25;;;7.55;71.38
78354;BME280;67629;46.040;18.232;2024-03-07T00:19:13;99548.41;;;7.52;71.54
78354;BME280;67629;46.040;18.232;2024-03-07T00:19:45;99546.97;;;7.49;71.56
78354;BME280;67629;46.040;18.232;2024-03-07T00:20:18;99539.81;;;7.55;71.50
78354;BME280;67629;46.040;18.232;2024-03-07T00:20:50;99538.16;;;7.54;71.54
78354;BME280;67629;46.040;18.232;2024-03-07T00:21:21;99541.91;;;7.53;71.40
78354;BME280;67629;46.040;18.232;2024-03-07T00:21:54;99543.44;;;7.49;71.43
78354;BME280;67629;46.040;18.232;2024-03-07T00:22:24;99535.28;;;7.49;71.96
78354;BME280;67629;46.040;18.232;2024-03-07T00:22:57;99540.72;;;7.49;72.70
78354;BME280;67629;46.040;18.232;2024-03-07T00:23:27;99536.56;;;7.46;72.21
78354;BME280;67629;46.040;18.232;2024-03-07T00:23:58;99537.03;;;7.43;72.59
78354;BME280;67629;46.040;18.232;2024-03-07T00:24:31;99536.63;;;7.39;72.08
78354;BME280;67629;46.040;18.232;2024-03-07T00:25:02;99538.44;;;7.45;71.61
78354;BME280;67629;46.040;18.232;2024-03-07T00:25:35;99536.38;;;7.41;72.59
78354;BME280;67629;46.040;18.232;2024-03-07T00:26:06;99536.38;;;7.41;72.07
78354;BME280;67629;46.040;18.232;2024-03-07T00:26:38;99534.13;;;7.38;72.57
78354;BME280;67629;46.040;18.232;2024-03-07T00:27:08;99529.97;;;7.35;72.99
78354;BME280;67629;46.040;18.232;2024-03-07T00:27:39;99541.00;;;7.40;72.55
78354;BME280;67629;46.040;18.232;2024-03-07T00:28:09;99538.75;;;7.37;73.04
78354;BME280;67629;46.040;18.232;2024-03-07T00:28:40;99530.81;;;7.36;73.04
78354;BME280;67629;46.040;18.232;2024-03-07T00:29:11;99534.81;;;7.33;72.60
78354;BME280;67629;46.040;18.232;2024-03-07T00:29:41;99538.75;;;7.37;72.40
78354;BME280;67629;46.040;18.232;2024-03-07T00:30:12;99541.69;;;7.36;72.82
78354;BME280;67629;46.040;18.232;2024-03-07T00:30:48;99533.13;;;7.32;72.95
78354;BME280;67629;46.040;18.232;2024-03-07T00:31:19;99534.56;;;7.35;72.47
78354;BME280;67629;46.040;18.232;2024-03-07T00:31:49;99526.06;;;7.31;72.44
78354;BME280;67629;46.040;18.232;2024-03-07T00:32:20;99535.19;;;7.37;72.82
78354;BME280;67629;46.040;18.232;2024-03-07T00:32:51;99528.88;;;7.43;72.46
78354;BME280;67629;46.040;18.232;2024-03-07T00:33:21;99528.94;;;7.36;72.99
78354;BME280;67629;46.040;18.232;2024-03-07T00:33:52;99536.03;;;7.37;72.46
78354;BME280;67629;46.040;18.232;2024-03-07T00:34:23;99529.53;;;7.38;73.24
78354;BME280;67629;46.040;18.232;2024-03-07T00:34:53;99527.06;;;7.37;72.93
78354;BME280;67629;46.040;18.232;2024-03-07T00:35:24;99524.34;;;7.37;73.43
78354;BME280;67629;46.040;18.232;2024-03-07T00:35:55;99528.69;;;7.38;72.39
78354;BME280;67629;46.040;18.232;2024-03-07T00:36:25;99531.19;;;7.39;72.90
78354;BME280;67629;46.040;18.232;2024-03-07T00:36:56;99528.78;;;7.31;73.05
78354;BME280;67629;46.040;18.232;2024-03-07T00:37:29;99534.88;;;7.27;72.71
78354;BME280;67629;46.040;18.232;2024-03-07T00:38:01;99529.13;;;7.35;72.79
78354;BME280;67629;46.040;18.232;2024-03-07T00:38:31;99526.66;;;7.33;73.10
78354;BME280;67629;46.040;18.232;2024-03-07T00:39:02;99525.91;;;7.44;72.49
78354;BME280;67629;46.040;18.232;2024-03-07T00:39:32;99524.09;;;7.38;73.05
78354;BME280;67629;46.040;18.232;2024-03-07T00:40:04;99527.66;;;7.39;72.73
78354;BME280;67629;46.040;18.232;2024-03-07T00:40:34;99526.75;;;7.45;72.07
78354;BME280;67629;46.040;18.232;2024-03-07T00:41:06;99532.63;;;7.42;72.54
78354;BME280;67629;46.040;18.232;2024-03-07T00:41:36;99531.13;;;7.46;72.09
78354;BME280;67629;46.040;18.232;2024-03-07T00:42:07;99531.03;;;7.53;71.90
78354;BME280;67629;46.040;18.232;2024-03-07T00:42:38;99530.50;;;7.44;72.25
78354;BME280;67629;46.040;18.232;2024-03-07T00:43:08;99529.31;;;7.40;72.33
78354;BME280;67629;46.040;18.232;2024-03-07T00:43:39;99532.56;;;7.49;72.49
78354;BME280;67629;46.040;18.232;2024-03-07T00:44:10;99528.31;;;7.53;71.74
78354;BME280;67629;46.040;18.232;2024-03-07T00:44:41;99536.16;;;7.61;71.86
78354;BME280;67629;46.040;18.232;2024-03-07T00:45:11;99537.63;;;7.63;71.81
78354;BME280;67629;46.040;18.232;2024-03-07T00:45:42;99537.00;;;7.61;71.41
78354;BME280;67629;46.040;18.232;2024-03-07T00:46:13;99533.84;;;7.64;71.57
78354;BME280;67629;46.040;18.232;2024-03-07T00:46:43;99531.94;;;7.65;71.73
78354;BME280;67629;46.040;18.232;2024-03-07T00:47:14;99534.06;;;7.63;71.88
78354;BME280;67629;46.040;18.232;2024-03-07T00:47:44;99526.59;;;7.58;71.94
78354;BME280;67629;46.040;18.232;2024-03-07T00:48:15;99527.34;;;7.65;71.52
78354;BME280;67629;46.040;18.232;2024-03-07T00:48:47;99528.09;;;7.72;71.13
78354;BME280;67629;46.040;18.232;2024-03-07T00:49:17;99532.41;;;7.62;71.67
78354;BME280;67629;46.040;18.232;2024-03-07T00:49:48;99524.56;;;7.54;72.52
78354;BME280;67629;46.040;18.232;2024-03-07T00:50:18;99521.16;;;7.58;72.40
78354;BME280;67629;46.040;18.232;2024-03-07T00:50:50;99529.22;;;7.65;71.79
78354;BME280;67629;46.040;18.232;2024-03-07T00:51:21;99523.56;;;7.66;72.41
78354;BME280;67629;46.040;18.232;2024-03-07T00:51:51;99525.69;;;7.64;72.10
78354;BME280;67629;46.040;18.232;2024-03-07T00:52:22;99524.84;;;7.64;72.08
78354;BME280;67629;46.040;18.232;2024-03-07T00:52:52;99526.59;;;7.58;72.25
78354;BME280;67629;46.040;18.232;2024-03-07T00:53:23;99529.41;;;7.52;72.71
78354;BME280;67629;46.040;18.232;2024-03-07T00:53:54;99518.97;;;7.49;72.11
78354;BME280;67629;46.040;18.232;2024-03-07T00:54:24;99522.75;;;7.47;72.45
78354;BME280;67629;46.040;18.232;2024-03-07T00:54:55;99519.63;;;7.44;73.00
78354;BME280;67629;46.040;18.232;2024-03-07T00:55:26;99517.25;;;7.54;73.05
78354;BME280;67629;46.040;18.232;2024-03-07T00:55:57;99524.03;;;7.63;72.30
78354;BME280;67629;46.040;18.232;2024-03-07T00:56:27;99519.78;;;7.67;72.16
78354;BME280;67629;46.040;18.232;2024-03-07T00:56:59;99518.50;;;7.70;72.46
78354;BME280;67629;46.040;18.232;2024-03-07T00:57:30;99519.84;;;7.61;72.49
78354;BME280;67629;46.040;18.232;2024-03-07T00:58:00;99513.97;;;7.64;72.73
78354;BME280;67629;46.040;18.232;2024-03-07T00:58:31;99524.84;;;7.64;72.66
78354;BME280;67629;46.040;18.232;2024-03-07T00:59:02;99513.22;;;7.57;73.19
78354;BME280;67629;46.040;18.232;2024-03-07T00:59:33;99511.41;;;7.51;73.31
78354;BME280;67629;46.040;18.232;2024-03-07T01:00:04;99516.41;;;7.54;73.08
78354;BME280;67629;46.040;18.232;2024-03-07T01:00:35;99518.22;;;7.60;73.02
78354;BME280;67629;46.040;18.232;2024-03-07T01:01:22;99519.06;;;7.60;72.78
78354;BME280;67629;46.040;18.232;2024-03-07T01:01:52;99520.41;;;7.51;73.65
78354;BME280;67629;46.040;18.232;2024-03-07T01:02:24;99510.88;;;7.42;74.39
78354;BME280;67629;46.040;18.232;2024-03-07T01:02:56;99506.75;;;7.39;73.84
78354;BME280;67629;46.040;18.232;2024-03-07T01:03:27;99519.03;;;7.42;74.21
78354;BME280;67629;46.040;18.232;2024-03-07T01:03:58;99507.34;;;7.41;74.92
78354;BME280;67629;46.040;18.232;2024-03-07T01:04:28;99517.53;;;7.46;74.24
78354;BME280;67629;46.040;18.232;2024-03-07T01:05:01;99514.13;;;7.51;74.26
78354;BME280;67629;46.040;18.232;2024-03-07T01:05:32;99514.28;;;7.56;74.01
78354;BME280;67629;46.040;18.232;2024-03-07T01:06:03;99520.78;;;7.55;74.00
78354;BME280;67629;46.040;18.232;2024-03-07T01:06:35;99513.22;;;7.57;73.29
78354;BME280;67629;46.040;18.232;2024-03-07T01:07:06;99517.13;;;7.61;73.97
78354;BME280;67629;46.040;18.232;2024-03-07T01:07:37;99524.03;;;7.63;73.29
78354;BME280;67629;46.040;18.232;2024-03-07T01:08:08;99516.09;;;7.62;73.41
78354;BME280;67629;46.040;18.232;2024-03-07T01:08:39;99512.78;;;7.60;73.29
78354;BME280;67629;46.040;18.232;2024-03-07T01:09:09;99513.22;;;7.57;73.84
78354;BME280;67629;46.040;18.232;2024-03-07T01:09:44;99517.53;;;7.64;73.77
78354;BME280;67629;46.040;18.232;2024-03-07T01:10:15;99512.59;;;7.73;73.52
78354;BME280;67629;46.040;18.232;2024-03-07T01:10:46;99514.88;;;7.76;73.54
78354;BME280;67629;46.040;18.232;2024-03-07T01:15:57;99507.78;;;7.57;73.74
78354;BME280;67629;46.040;18.232;2024-03-07T01:16:28;99508.25;;;7.54;73.87
78354;BME280;67629;46.040;18.232;2024-03-07T01:16:58;99512.00;;;7.53;73.99
78354;BME280;67629;46.040;18.232;2024-03-07T01:17:29;99506.97;;;7.56;74.36
78354;BME280;67629;46.040;18.232;2024-03-07T01:18:00;99505.22;;;7.62;73.96
78354;BME280;67629;46.040;18.232;2024-03-07T01:18:31;99507.72;;;7.63;74.12
78354;BME280;67629;46.040;18.232;2024-03-07T01:19:04;99510.97;;;7.54;74.39
78354;BME280;67629;46.040;18.232;2024-03-07T01:19:36;99506.13;;;7.56;74.04
78354;BME280;67629;46.040;18.232;2024-03-07T01:20:08;99514.59;;;7.47;74.28
78354;BME280;67629;46.040;18.232;2024-03-07T01:20:39;99508.47;;;7.34;74.72
78354;BME280;67629;46.040;18.232;2024-03-07T01:21:10;99499.69;;;7.32;75.12
78354;BME280;67629;46.040;18.232;2024-03-07T01:21:41;99504.88;;;7.40;74.86
78354;BME280;67629;46.040;18.232;2024-03-07T01:22:11;99507.13;;;7.43;74.68
78354;BME280;67629;46.040;18.232;2024-03-07T01:22:42;99502.75;;;7.42;74.41
78354;BME280;67629;46.040;18.232;2024-03-07T01:23:12;99500.53;;;7.32;74.72
78354;BME280;67629;46.040;18.232;2024-03-07T01:23:43;99509.00;;;7.24;75.47
78354;BME280;67629;46.040;18.232;2024-03-07T01:24:14;99501.69;;;7.25;75.59
78354;BME280;67629;46.040;18.232;2024-03-07T01:24:48;99505.59;;;7.29;75.73
78354;BME280;67629;46.040;18.232;2024-03-07T01:27:57;99504.09;;;7.33;75.96
78354;BME280;67629;46.040;18.232;2024-03-07T01:28:28;99509.22;;;7.41;75.53
78354;BME280;67629;46.040;18.232;2024-03-07T01:29:00;99502.16;;;7.40;75.68
78354;BME280;67629;46.040;18.232;2024-03-07T01:29:31;99510.22;;;7.28;75.65
78354;BME280;67629;46.040;18.232;2024-03-07T01:30:02;99505.69;;;7.22;75.92
78354;BME280;67629;46.040;18.232;2024-03-07T01:30:32;99507.09;;;7.25;76.15
78354;BME280;67629;46.040;18.232;2024-03-07T01:31:03;99503.63;;;7.18;75.89
78354;BME280;67629;46.040;18.232;2024-03-07T01:31:34;99508.69;;;7.14;76.90
78354;BME280;67629;46.040;18.232;2024-03-07T01:32:05;99504.91;;;7.15;76.87
78354;BME280;67629;46.040;18.232;2024-03-07T01:32:35;99511.63;;;7.13;76.43
78354;BME280;67629;46.040;18.232;2024-03-07T01:33:06;99504.91;;;7.15;76.91
78354;BME280;67629;46.040;18.232;2024-03-07T01:33:37;99510.28;;;7.22;76.24
78354;BME280;67629;46.040;18.232;2024-03-07T01:34:07;99511.13;;;7.22;76.99
78354;BME280;67629;46.040;18.232;2024-03-07T01:34:38;99508.59;;;7.21;76.84
78354;BME280;67629;46.040;18.232;2024-03-07T01:35:09;99502.81;;;7.17;76.90
78354;BME280;67629;46.040;18.232;2024-03-07T01:35:40;99515.91;;;7.20;77.11
78354;BME280;67629;46.040;18.232;2024-03-07T01:36:10;99515.13;;;7.20;77.64
78354;BME280;67629;46.040;18.232;2024-03-07T01:36:41;99509.75;;;7.13;77.34
78354;BME280;67629;46.040;18.232;2024-03-07T01:37:11;99511.84;;;7.11;77.92
78354;BME280;67629;46.040;18.232;2024-03-07T01:37:42;99512.66;;;7.12;77.30
78354;BME280;67629;46.040;18.232;2024-03-07T01:38:13;99511.66;;;7.06;77.96
78354;BME280;67629;46.040;18.232;2024-03-07T01:39:00;99522.09;;;7.09;77.52
78354;BME280;67629;46.040;18.232;2024-03-07T01:39:30;99512.31;;;7.08;78.17
78354;BME280;67629;46.040;18.232;2024-03-07T01:40:03;99509.13;;;7.11;77.83
78354;BME280;67629;46.040;18.232;2024-03-07T01:40:50;99510.09;;;6.99;78.02
78354;BME280;67629;46.040;18.232;2024-03-07T01:41:36;99517.09;;;7.06;78.98
78354;BME280;67629;46.040;18.232;2024-03-07T01:42:07;99516.75;;;7.03;78.77
78354;BME280;67629;46.040;18.232;2024-03-07T01:42:53;99514.25;;;7.01;79.23
78354;BME280;67629;46.040;18.232;2024-03-07T01:43:40;99514.19;;;7.08;78.32
78354;BME280;67629;46.040;18.232;2024-03-07T01:44:26;99509.66;;;7.02;79.26
78354;BME280;67629;46.040;18.232;2024-03-07T01:44:57;99515.91;;;7.02;79.14
78354;BME280;67629;46.040;18.232;2024-03-07T01:45:42;99510.94;;;6.99;79.04
78354;BME280;67629;46.040;18.232;2024-03-07T01:46:29;99522.22;;;6.96;79.96
78354;BME280;67629;46.040;18.232;2024-03-07T01:47:00;99514.09;;;6.96;79.23
78354;BME280;67629;46.040;18.232;2024-03-07T01:47:33;99506.78;;;6.97;79.98
78354;BME280;67629;46.040;18.232;2024-03-07T01:48:05;99516.34;;;6.99;80.00
78354;BME280;67629;46.040;18.232;2024-03-07T01:48:37;99508.81;;;7.01;79.39
78354;BME280;67629;46.040;18.232;2024-03-07T01:49:08;99509.25;;;6.98;80.20
78354;BME280;67629;46.040;18.232;2024-03-07T01:49:39;99514.91;;;6.97;80.56
78354;BME280;67629;46.040;18.232;2024-03-07T01:50:10;99511.81;;;6.93;80.14
78354;BME280;67629;46.040;18.232;2024-03-07T01:50:40;99513.69;;;6.93;80.37
78354;BME280;67629;46.040;18.232;2024-03-07T01:51:11;99506.81;;;6.90;80.25
78354;BME280;67629;46.040;18.232;2024-03-07T01:51:42;99508.88;;;6.95;80.68
78354;BME280;67629;46.040;18.232;2024-03-07T01:52:14;99505.53;;;6.93;80.52
78354;BME280;67629;46.040;18.232;2024-03-07T01:52:45;99512.84;;;6.92;80.70
78354;BME280;67629;46.040;18.232;2024-03-07T01:53:16;99510.09;;;6.99;80.09
78354;BME280;67629;46.040;18.232;2024-03-07T01:53:47;99509.03;;;7.00;80.20
78354;BME280;67629;46.040;18.232;2024-03-07T01:54:17;99508.66;;;6.96;80.50
78354;BME280;67629;46.040;18.232;2024-03-07T01:55:04;99507.97;;;7.01;80.25
78354;BME280;67629;46.040;18.232;2024-03-07T01:55:51;99511.31;;;7.03;80.56
78354;BME280;67629;46.040;18.232;2024-03-07T01:56:39;99512.94;;;7.04;80.64
78354;BME280;67629;46.040;18.232;2024-03-07T01:57:26;99518.63;;;7.02;80.25
78354;BME280;67629;46.040;18.232;2024-03-07T01:58:13;99511.53;;;7.01;80.46
78354;BME280;67629;46.040;18.232;2024-03-07T01:59:03;99517.44;;;7.16;79.74
78354;BME280;67629;46.040;18.232;2024-03-07T01:59:51;99506.78;;;7.15;79.95
78354;BME280;67629;46.040;18.232;2024-03-07T02:00:37;99514.38;;;7.06;80.27
78354;BME280;67629;46.040;18.232;2024-03-07T02:01:23;99508.25;;;6.93;80.81
78354;BME280;67629;46.040;18.232;2024-03-07T02:02:09;99516.75;;;7.03;80.79
78354;BME280;67629;46.040;18.232;2024-03-07T02:02:55;99510.69;;;7.01;80.70
78354;BME280;67629;46.040;18.232;2024-03-07T02:03:40;99506.78;;;6.97;80.85
78354;BME280;67629;46.040;18.232;2024-03-07T02:04:28;99505.88;;;7.03;81.33
78354;BME280;67629;46.040;18.232;2024-03-07T02:05:14;99512.50;;;7.07;81.51
78354;BME280;67629;46.040;18.232;2024-03-07T02:06:00;99519.22;;;7.04;81.40
78354;BME280;67629;46.040;18.232;2024-03-07T02:06:48;99510.94;;;6.99;81.45
78354;BME280;67629;46.040;18.232;2024-03-07T02:07:34;99515.75;;;7.15;80.83
78354;BME280;67629;46.040;18.232;2024-03-07T02:08:19;99514.72;;;7.16;80.39
78354;BME280;67629;46.040;18.232;2024-03-07T02:09:05;99511.66;;;7.06;80.98
78354;BME280;67629;46.040;18.232;2024-03-07T02:09:37;99510.97;;;7.17;81.00
78354;BME280;67629;46.040;18.232;2024-03-07T02:10:09;99509.00;;;7.24;80.50
78354;BME280;67629;46.040;18.232;2024-03-07T02:10:41;99511.84;;;7.29;80.64
78354;BME280;67629;46.040;18.232;2024-03-07T02:11:12;99503.72;;;7.29;79.99
78354;BME280;67629;46.040;18.232;2024-03-07T02:11:43;99515.19;;;7.31;79.85
78354;BME280;67629;46.040;18.232;2024-03-07T02:12:14;99512.75;;;7.23;81.11
78354;BME280;67629;46.040;18.232;2024-03-07T02:12:44;99517.81;;;7.20;81.00
78354;BME280;67629;46.040;18.232;2024-03-07T02:13:15;99517.13;;;7.24;80.74
78354;BME280;67629;46.040;18.232;2024-03-07T02:13:46;99513.69;;;7.17;81.22
78354;BME280;67629;46.040;18.232;2024-03-07T02:14:17;99512.22;;;7.15;81.04
78354;BME280;67629;46.040;18.232;2024-03-07T02:14:47;99515.31;;;7.18;80.53
78354;BME280;67629;46.040;18.232;2024-03-07T02:15:18;99518.72;;;7.14;81.22
78354;BME280;67629;46.040;18.232;2024-03-07T02:15:48;99517.97;;;7.25;81.01
78354;BME280;67629;46.040;18.232;2024-03-07T02:16:50;99518.72;;;7.32;80.30
78354;BME280;67629;46.040;18.232;2024-03-07T02:17:21;99510.94;;;7.35;80.07
78354;BME280;67629;46.040;18.232;2024-03-07T02:17:52;99515.19;;;7.31;80.55
78354;BME280;67629;46.040;18.232;2024-03-07T02:18:22;99522.06;;;7.34;80.52
78354;BME280;67629;46.040;18.232;2024-03-07T02:18:54;99513.47;;;7.37;80.51
78354;BME280;67629;46.040;18.232;2024-03-07T02:19:26;99517.03;;;7.37;80.21
78354;BME280;67629;46.040;18.232;2024-03-07T02:19:56;99513.81;;;7.40;80.33
78354;BME280;67629;46.040;18.232;2024-03-07T02:20:28;99518.00;;;7.43;80.24
78354;BME280;67629;46.040;18.232;2024-03-07T02:20:58;99514.50;;;7.36;80.53
78354;BME280;67629;46.040;18.232;2024-03-07T02:21:29;99510.41;;;7.27;80.78
78354;BME280;67629;46.040;18.232;2024-03-07T02:21:59;99508.53;;;7.27;81.00
78354;BME280;67629;46.040;18.232;2024-03-07T02:22:30;99514.75;;;7.34;81.03
78354;BME280;67629;46.040;18.232;2024-03-07T02:23:01;99517.69;;;7.33;80.90
78354;BME280;67629;46.040;18.232;2024-03-07T02:23:32;99515.78;;;7.33;80.77
78354;BME280;67629;46.040;18.232;2024-03-07T02:24:03;99513.28;;;7.32;81.32
78354;BME280;67629;46.040;18.232;2024-03-07T02:24:34;99518.06;;;7.36;81.00
78354;BME280;67629;46.040;18.232;2024-03-07T02:25:06;99510.94;;;7.35;80.65
78354;BME280;67629;46.040;18.232;2024-03-07T02:25:36;99514.44;;;7.24;81.89
78354;BME280;67629;46.040;18.232;2024-03-07T02:26:07;99518.72;;;7.32;80.87
78354;BME280;67629;46.040;18.232;2024-03-07T02:26:41;99515.09;;;7.38;81.27
78354;BME280;67629;46.040;18.232;2024-03-07T02:27:12;99513.66;;;7.35;81.12
78354;BME280;67629;46.040;18.232;2024-03-07T02:27:44;99513.00;;;7.40;81.27
78354;BME280;67629;46.040;18.232;2024-03-07T02:28:15;99511.09;;;7.40;80.70
78354;BME280;67629;46.040;18.232;2024-03-07T02:28:46;99510.06;;;7.41;80.64
78354;BME280;67629;46.040;18.232;2024-03-07T02:29:32;99510.72;;;7.19;82.18
78354;BME280;67629;46.040;18.232;2024-03-07T02:30:18;99511.72;;;7.24;82.33
78354;BME280;67629;46.040;18.232;2024-03-07T02:31:04;99502.06;;;7.28;81.71
78354;BME280;67629;46.040;18.232;2024-03-07T02:31:35;99510.38;;;7.33;81.99
78354;BME280;67629;46.040;18.232;2024-03-07T02:32:22;99510.28;;;7.40;81.39
78354;BME280;67629;46.040;18.232;2024-03-07T02:33:08;99513.00;;;7.40;81.61
78354;BME280;67629;46.040;18.232;2024-03-07T02:33:55;99502.94;;;7.40;81.52
78354;BME280;67629;46.040;18.232;2024-03-07T02:34:40;99510.00;;;7.48;81.72
78354;BME280;67629;46.040;18.232;2024-03-07T02:35:26;99505.47;;;7.42;81.52
78354;BME280;67629;46.040;18.232;2024-03-07T02:36:12;99510.56;;;7.32;82.29
78354;BME280;67629;46.040;18.232;2024-03-07T02:36:43;99509.53;;;7.33;82.20
78354;BME280;67629;46.040;18.232;2024-03-07T02:37:13;99513.00;;;7.40;82.50
78354;BME280;67629;46.040;18.232;2024-03-07T02:37:44;99512.78;;;7.41;82.06
78354;BME280;67629;46.040;18.232;2024-03-07T02:38:16;99504.63;;;7.41;81.96
78354;BME280;67629;46.040;18.232;2024-03-07T02:38:48;99510.94;;;7.35;81.81
78354;BME280;67629;46.040;18.232;2024-03-07T02:39:18;99510.50;;;7.38;82.27
78354;BME280;67629;46.040;18.232;2024-03-07T02:39:49;99507.03;;;7.31;82.74
78354;BME280;67629;46.040;18.232;2024-03-07T02:40:20;99507.50;;;7.28;82.88
78354;BME280;67629;46.040;18.232;2024-03-07T02:40:50;99504.00;;;7.21;83.60
78354;BME280;67629;46.040;18.232;2024-03-07T02:41:21;99511.13;;;7.22;83.79
78354;BME280;67629;46.040;18.232;2024-03-07T02:41:52;99502.97;;;7.22;83.14
78354;BME280;67629;46.040;18.232;2024-03-07T02:42:22;99502.81;;;7.17;83.21
78354;BME280;67629;46.040;18.232;2024-03-07T02:42:53;99509.28;;;7.16;83.80
78354;BME280;67629;46.040;18.232;2024-03-07T02:43:23;99501.88;;;7.23;83.37
78354;BME280;67629;46.040;18.232;2024-03-07T02:43:54;99505.81;;;7.27;82.96
78354;BME280;67629;46.040;18.232;2024-03-07T02:44:24;99503.72;;;7.29;82.79
78354;BME280;67629;46.040;18.232;2024-03-07T02:44:55;99501.13;;;7.16;83.98
78354;BME280;67629;46.040;18.232;2024-03-07T02:45:26;99512.44;;;7.13;84.18
78354;BME280;67629;46.040;18.232;2024-03-07T02:45:57;99509.34;;;7.10;84.21
78354;BME280;67629;46.040;18.232;2024-03-07T02:46:27;99499.16;;;7.05;84.60
78354;BME280;67629;46.040;18.232;2024-03-07T02:46:58;99506.09;;;7.01;85.23
78354;BME280;67629;46.040;18.232;2024-03-07T02:47:29;99500.16;;;7.11;85.15
78354;BME280;67629;46.040;18.232;2024-03-07T02:47:59;99509.78;;;7.07;84.63
78354;BME280;67629;46.040;18.232;2024-03-07T02:48:30;99506.78;;;6.97;85.88
78354;BME280;67629;46.040;18.232;2024-03-07T02:49:01;99506.81;;;6.90;85.74
78354;BME280;67629;46.040;18.232;2024-03-07T02:49:31;99504.91;;;6.97;85.89
78354;BME280;67629;46.040;18.232;2024-03-07T02:50:02;99507.44;;;6.92;85.67
78354;BME280;67629;46.040;18.232;2024-03-07T02:50:32;99506.44;;;6.86;85.48
78354;BME280;67629;46.040;18.232;2024-03-07T02:51:03;99511.22;;;6.91;85.66
78354;BME280;67629;46.040;18.232;2024-03-07T02:51:36;99510.97;;;6.93;85.80
78354;BME280;67629;46.040;18.232;2024-03-07T02:52:06;99507.88;;;6.89;85.84
78354;BME280;67629;46.040;18.232;2024-03-07T02:52:38;99505.78;;;6.91;85.61
78354;BME280;67629;46.040;18.232;2024-03-07T02:53:09;99509.50;;;6.97;85.64
78354;BME280;67629;46.040;18.232;2024-03-07T02:53:39;99503.06;;;6.91;86.28
78354;BME280;67629;46.040;18.232;2024-03-07T02:54:10;99503.22;;;6.96;86.00
78354;BME280;67629;46.040;18.232;2024-03-07T02:54:40;99499.91;;;6.94;86.29
78354;BME280;67629;46.040;18.232;2024-03-07T02:55:11;99505.69;;;6.98;85.85
78354;BME280;67629;46.040;18.232;2024-03-07T02:55:42;99498.91;;;6.88;86.69
78354;BME280;67629;46.040;18.232;2024-03-07T02:56:12;99510.97;;;6.93;86.68
78354;BME280;67629;46.040;18.232;2024-03-07T02:56:43;99507.16;;;7.00;86.29
78354;BME280;67629;46.040;18.232;2024-03-07T02:57:13;99506.88;;;7.08;85.28
78354;BME280;67629;46.040;18.232;2024-03-07T02:57:44;99509.66;;;7.02;86.11
78354;BME280;67629;46.040;18.232;2024-03-07T02:58:15;99504.59;;;7.05;86.46
78354;BME280;67629;46.040;18.232;2024-03-07T02:58:46;99506.19;;;7.13;86.42
78354;BME280;67629;46.040;18.232;2024-03-07T02:59:17;99500.75;;;7.13;85.55
78354;BME280;67629;46.040;18.232;2024-03-07T02:59:47;99508.97;;;7.06;85.58
78354;BME280;67629;46.040;18.232;2024-03-07T03:00:18;99503.09;;;7.09;85.72
78354;BME280;67629;46.040;18.232;2024-03-07T03:00:58;99506.53;;;6.98;86.09
78354;BME280;67629;46.040;18.232;2024-03-07T03:01:32;99504.25;;;6.95;86.26
78354;BME280;67629;46.040;18.232;2024-03-07T03:02:02;99505.34;;;6.94;86.80
78354;BME280;67629;46.040;18.232;2024-03-07T03:02:33;99509.53;;;6.90;86.57
78354;BME280;67629;46.040;18.232;2024-03-07T03:03:04;99508.09;;;6.87;86.94
78354;BME280;67629;46.040;18.232;2024-03-07T03:03:34;99509.34;;;6.92;86.69
78354;BME280;67629;46.040;18.232;2024-03-07T03:04:05;99506.34;;;7.00;86.22
78354;BME280;67629;46.040;18.232;2024-03-07T03:04:35;99504.38;;;7.07;86.44